Time;durP1;ratioP1;P1;durP2;ratioP2;P2;SDS_P1;SDS_P2;PMS_P1;PMS_P2;Temp;Humidity;BMP_temperature;BMP_pressure;BME280_temperature;BME280_humidity;BME280_pressure;Samples;Min_cycle;Max_cycle;Signal;HPM_P1;HPM_P2
2022/05/12 00:02:11;;;;;;;13.02;5.90;;;10.40;63.50;11.60;97830.00;;;;5004569;28;82441;-60
2022/05/12 00:04:37;;;;;;;15.90;5.65;;;10.40;63.40;11.50;97834.00;;;;4986590;28;83232;-59
2022/05/12 00:07:05;;;;;;;10.70;5.25;;;10.40;64.60;11.50;97836.00;;;;4986124;28;82295;-58
2022/05/12 00:09:34;;;;;;;10.23;4.93;;;10.40;65.10;11.40;97836.00;;;;4985321;28;84427;-60
2022/05/12 00:12:01;;;;;;;16.20;5.53;;;10.40;65.20;11.40;97831.00;;;;4970854;28;83802;-59
2022/05/12 00:14:27;;;;;;;18.00;5.78;;;10.40;64.30;11.50;97838.00;;;;4985776;28;82454;-59
2022/05/12 00:16:56;;;;;;;15.43;5.00;;;10.40;64.40;11.50;97844.00;;;;5000545;28;82354;-60
2022/05/12 00:19:26;;;;;;;13.57;4.70;;;10.50;64.80;11.50;97833.00;;;;4989094;28;82626;-58
2022/05/12 00:21:53;;;;;;;12.55;5.00;;;10.60;64.50;11.60;97833.00;;;;5004157;28;82429;-59
2022/05/12 00:24:20;;;;;;;9.43;4.75;;;10.40;64.60;11.60;97828.00;;;;4997491;28;82105;-59
2022/05/12 00:26:46;;;;;;;13.75;4.50;;;10.60;64.50;11.70;97828.00;;;;5005495;28;83429;-59
2022/05/12 00:29:13;;;;;;;9.93;4.63;;;10.60;64.50;11.70;97830.00;;;;5004354;28;82707;-60
2022/05/12 00:31:42;;;;;;;13.02;4.40;;;10.60;65.30;11.60;97831.00;;;;5005432;28;81942;-60
2022/05/12 00:34:11;;;;;;;17.88;5.32;;;10.50;66.20;11.50;97831.00;;;;4998944;28;82878;-60
2022/05/12 00:36:37;;;;;;;10.45;4.47;;;10.30;68.30;11.30;97822.00;;;;4991447;28;81974;-60
2022/05/12 00:39:05;;;;;;;9.43;3.47;;;10.30;67.60;11.20;97812.00;;;;4994391;28;82696;-60
2022/05/12 00:41:31;;;;;;;8.18;3.45;;;10.20;66.50;11.20;97817.00;;;;4994015;28;83421;-60
2022/05/12 00:44:02;;;;;;;8.15;3.42;;;10.20;66.60;11.20;97815.00;;;;4996247;28;82102;-60
2022/05/12 00:46:37;;;;;;;10.70;3.65;;;10.10;65.90;11.10;97810.00;;;;5001676;28;82165;-60
2022/05/12 00:49:12;;;;;;;6.40;3.33;;;10.10;66.40;11.10;97813.00;;;;4992384;28;83453;-60
2022/05/12 00:51:47;;;;;;;11.15;4.05;;;10.00;66.00;11.10;97805.00;;;;4987352;28;82407;-60
2022/05/12 00:54:23;;;;;;;9.88;4.03;;;10.00;66.60;11.20;97813.00;;;;4989609;28;81966;-60
2022/05/12 00:56:50;;;;;;;12.77;4.18;;;10.00;65.90;11.20;97812.00;;;;5000149;28;82571;-60
2022/05/12 00:59:25;;;;;;;11.80;4.38;;;10.10;65.50;11.20;97804.00;;;;4984400;28;84523;-60
2022/05/12 01:01:51;;;;;;;8.68;3.90;;;9.90;66.80;11.20;97801.00;;;;4984936;28;83321;-60
2022/05/12 01:04:20;;;;;;;8.82;3.78;;;10.10;65.60;11.30;97797.00;;;;5005159;28;81783;-60
2022/05/12 01:06:46;;;;;;;9.82;3.80;;;10.10;65.60;11.40;97798.00;;;;5004936;28;81901;-62
2022/05/12 01:09:14;;;;;;;7.78;3.70;;;10.30;65.80;11.50;97792.00;;;;5004827;28;81938;-62
2022/05/12 01:11:40;;;;;;;8.95;3.92;;;10.30;65.10;11.50;97798.00;;;;4983911;28;82941;-62
2022/05/12 01:14:08;;;;;;;7.55;3.47;;;10.30;65.50;11.60;97805.00;;;;4984515;28;81970;-62
2022/05/12 01:16:38;;;;;;;8.98;3.60;;;10.40;65.10;11.60;97797.00;;;;4997257;28;82395;-61
2022/05/12 01:19:07;;;;;;;13.75;3.90;;;10.40;65.20;11.60;97796.00;;;;5003953;28;82924;-60
2022/05/12 01:21:34;;;;;;;6.95;3.42;;;10.40;66.00;11.60;97783.00;;;;4985698;28;84712;-61
2022/05/12 01:24:01;;;;;;;5.28;2.80;;;10.20;65.90;11.50;97780.00;;;;4995923;28;82832;-61
2022/05/12 01:26:28;;;;;;;6.60;3.00;;;10.40;66.00;11.60;97784.00;;;;5004122;28;82548;-61
2022/05/12 01:28:54;;;;;;;6.45;3.20;;;10.40;66.20;11.70;97789.00;;;;5002881;28;83704;-59
2022/05/12 01:31:23;;;;;;;8.40;3.20;;;10.40;66.20;11.60;97781.00;;;;5004807;28;82112;-61
2022/05/12 01:33:51;;;;;;;6.03;3.08;;;10.40;66.30;11.50;97771.00;;;;4997851;28;82199;-60
2022/05/12 01:36:19;;;;;;;7.22;3.60;;;10.30;66.50;11.60;97779.00;;;;4994659;28;85144;-61
2022/05/12 01:38:47;;;;;;;9.20;3.45;;;10.40;67.10;11.60;97777.00;;;;4993775;28;82345;-60
2022/05/12 01:41:14;;;;;;;7.07;3.53;;;10.40;68.00;11.70;97784.00;;;;4995954;28;83398;-61
2022/05/12 01:43:41;;;;;;;12.07;3.63;;;10.50;67.80;11.80;97790.00;;;;4990705;28;82318;-59
2022/05/12 01:46:07;;;;;;;9.88;3.55;;;10.40;68.30;11.80;97782.00;;;;4991130;28;82379;-59
2022/05/12 01:48:34;;;;;;;8.38;3.58;;;10.50;70.10;11.80;97792.00;;;;4991523;28;84533;-59
2022/05/12 01:51:01;;;;;;;8.38;3.17;;;10.50;70.00;11.80;97789.00;;;;5003698;28;82428;-59
2022/05/12 01:53:27;;;;;;;10.65;4.30;;;10.50;70.20;11.80;97784.00;;;;5000799;28;82644;-59
2022/05/12 01:55:53;;;;;;;12.23;3.63;;;10.50;70.60;11.80;97787.00;;;;4994256;28;82180;-60
2022/05/12 01:58:22;;;;;;;10.43;4.00;;;10.60;71.30;11.90;97785.00;;;;4995757;28;82583;-59
2022/05/12 02:00:49;;;;;;;9.80;3.80;;;10.50;72.60;12.00;97788.00;;;;5003975;28;82256;-59
2022/05/12 02:03:15;;;;;;;10.85;3.58;;;10.50;72.60;11.90;97779.00;;;;4992787;28;82028;-58
2022/05/12 02:05:42;;;;;;;8.10;3.65;;;10.30;73.00;11.80;97783.00;;;;4983884;28;82154;-60
2022/05/12 02:08:11;;;;;;;8.45;4.00;;;10.30;74.10;11.70;97780.00;;;;4994308;28;82553;-60
2022/05/12 02:10:40;;;;;;;8.05;3.65;;;10.30;75.60;11.70;97777.00;;;;4992799;28;81997;-59
2022/05/12 02:13:14;;;;;;;6.72;3.35;;;10.30;76.50;11.70;97770.00;;;;4985180;28;82991;-59
2022/05/12 02:15:41;;;;;;;9.02;3.83;;;10.30;77.50;11.70;97778.00;;;;4987474;28;83386;-61
2022/05/12 02:18:08;;;;;;;9.75;3.83;;;10.20;77.70;11.60;97770.00;;;;5003243;28;83381;-60
2022/05/12 02:20:35;;;;;;;9.52;3.78;;;10.20;79.00;11.60;97772.00;;;;4993774;28;81882;-60
2022/05/12 02:23:01;;;;;;;6.85;3.47;;;10.20;79.30;11.50;97769.00;;;;4986162;28;82290;-60
2022/05/12 02:25:27;;;;;;;11.27;3.92;;;10.20;79.80;11.60;97779.00;;;;4993586;28;83318;-60
2022/05/12 02:27:55;;;;;;;10.40;3.53;;;10.20;80.30;11.60;97779.00;;;;5003025;28;82458;-60
2022/05/12 02:30:27;;;;;;;7.93;4.07;;;10.20;80.90;11.70;97785.00;;;;5004156;28;82947;-60
2022/05/12 02:32:54;;;;;;;12.02;4.03;;;10.30;81.80;11.70;97782.00;;;;5003967;28;81886;-60
2022/05/12 02:35:21;;;;;;;10.63;3.88;;;10.30;82.50;11.70;97771.00;;;;4994767;28;83355;-60
2022/05/12 02:37:48;;;;;;;8.43;3.85;;;10.30;83.60;11.70;97773.00;;;;4996580;28;83232;-60
2022/05/12 02:40:18;;;;;;;9.38;4.13;;;10.30;84.50;11.80;97762.00;;;;4994504;28;83842;-61
2022/05/12 02:42:44;;;;;;;9.63;3.85;;;10.30;84.80;11.80;97774.00;;;;4996439;28;81884;-61
2022/05/12 02:45:12;;;;;;;10.85;4.25;;;10.40;85.70;11.90;97769.00;;;;4998528;28;81949;-61
2022/05/12 02:47:38;;;;;;;9.60;4.32;;;10.40;85.90;12.00;97778.00;;;;4987264;28;82593;-60
2022/05/12 02:50:06;;;;;;;9.35;3.67;;;10.50;86.30;12.00;97775.00;;;;4998597;28;83455;-61
2022/05/12 02:52:32;;;;;;;8.57;4.20;;;10.60;86.50;12.00;97777.00;;;;5004719;28;82069;-60
2022/05/12 02:54:58;;;;;;;9.95;4.22;;;10.60;87.20;11.90;97777.00;;;;5002032;28;82436;-62
2022/05/12 02:57:24;;;;;;;11.60;4.70;;;10.50;88.70;12.00;97767.00;;;;4994854;28;82863;-60
2022/05/12 02:59:50;;;;;;;10.25;4.32;;;10.60;89.70;11.90;97780.00;;;;5006601;28;83347;-60
2022/05/12 03:02:16;;;;;;;12.25;4.78;;;10.50;90.00;11.90;97778.00;;;;5003539;28;82822;-60
2022/05/12 03:04:43;;;;;;;11.00;4.10;;;10.50;90.80;11.90;97773.00;;;;4987157;28;82876;-61
2022/05/12 03:07:09;;;;;;;11.90;4.20;;;10.50;91.20;11.90;97777.00;;;;4986846;28;82479;-61
2022/05/12 03:09:36;;;;;;;13.65;4.45;;;10.50;91.50;11.90;97773.00;;;;4994596;28;83013;-61
2022/05/12 03:12:02;;;;;;;11.63;4.22;;;10.50;91.90;12.10;97754.00;;;;4992748;28;82117;-61
2022/05/12 03:14:28;;;;;;;10.32;4.28;;;10.60;92.20;12.20;97749.00;;;;5006730;28;82378;-60
2022/05/12 03:16:55;;;;;;;10.45;4.45;;;10.70;92.20;12.40;97768.00;;;;5006804;28;82399;-61
2022/05/12 03:19:22;;;;;;;13.18;4.38;;;10.90;92.60;12.60;97756.00;;;;4990280;28;82426;-60
2022/05/12 03:21:49;;;;;;;12.38;4.82;;;11.00;92.40;12.70;97749.00;;;;5002187;28;82365;-60
2022/05/12 03:24:17;;;;;;;23.38;4.65;;;11.10;92.60;12.80;97736.00;;;;4991183;28;84887;-60
2022/05/12 03:26:44;;;;;;;12.02;4.95;;;11.30;92.10;12.70;97752.00;;;;5002933;28;83478;-61
2022/05/12 03:29:10;;;;;;;16.15;5.07;;;11.20;92.40;12.80;97743.00;;;;5000970;28;84258;-61
2022/05/12 03:31:37;;;;;;;14.20;4.85;;;11.30;92.60;12.80;97735.00;;;;5006262;28;82170;-62
2022/05/12 03:34:04;;;;;;;8.63;4.35;;;11.30;92.80;12.80;97745.00;;;;5000639;28;82142;-61
2022/05/12 03:36:35;;;;;;;15.18;4.85;;;11.30;93.50;12.90;97742.00;;;;4997088;28;83020;-61
2022/05/12 03:39:04;;;;;;;14.27;4.85;;;11.50;93.80;13.00;97741.00;;;;4993667;28;83214;-61
2022/05/12 03:41:31;;;;;;;11.60;5.13;;;11.50;94.30;13.00;97745.00;;;;4996433;28;82134;-61
2022/05/12 03:46:42;;;;;;;11.93;4.65;;;11.50;95.20;13.10;97747.00;;;;4994457;28;83637;-60
2022/05/12 03:49:08;;;;;;;17.80;5.53;;;11.60;95.20;13.00;97750.00;;;;4996145;28;82202;-60
2022/05/12 03:51:34;;;;;;;14.73;5.05;;;11.50;95.40;13.00;97755.00;;;;4993763;28;82982;-60
2022/05/12 03:54:01;;;;;;;12.93;4.57;;;11.50;95.30;12.90;97762.00;;;;4990434;28;83492;-61
2022/05/12 03:56:27;;;;;;;9.63;4.57;;;11.40;96.00;12.70;97765.00;;;;4995556;28;82895;-61
2022/05/12 03:58:53;;;;;;;10.70;4.30;;;11.40;95.80;12.80;97760.00;;;;5001234;28;83172;-61
2022/05/12 04:01:19;;;;;;;10.55;4.63;;;11.40;96.30;12.80;97756.00;;;;5005202;28;81797;-61
2022/05/12 04:03:46;;;;;;;12.32;4.00;;;11.40;96.90;12.90;97753.00;;;;4991528;28;82655;-61
2022/05/12 04:06:12;;;;;;;13.98;4.30;;;11.40;96.90;13.00;97759.00;;;;4985898;28;82800;-61
2022/05/12 04:08:38;;;;;;;13.13;4.00;;;11.50;96.90;13.10;97754.00;;;;4994486;28;82285;-61
2022/05/12 04:11:07;;;;;;;17.15;4.35;;;11.60;97.10;13.20;97765.00;;;;5005538;28;82536;-61
2022/05/12 04:13:34;;;;;;;11.57;3.92;;;11.70;97.40;13.20;97765.00;;;;4986187;28;82634;-60
2022/05/12 04:16:00;;;;;;;13.68;4.93;;;11.70;97.70;13.30;97747.00;;;;4992521;28;84560;-60
2022/05/12 04:18:26;;;;;;;9.48;4.03;;;11.80;97.80;13.40;97760.00;;;;5004834;28;84142;-60
2022/05/12 04:20:53;;;;;;;16.80;4.80;;;11.80;97.70;13.40;97740.00;;;;4993432;28;82620;-61
2022/05/12 04:23:19;;;;;;;16.92;5.00;;;11.80;98.30;13.50;97747.00;;;;5001162;28;82753;-61
2022/05/12 04:25:45;;;;;;;16.35;4.80;;;12.00;98.30;13.60;97747.00;;;;5002313;28;83005;-61
2022/05/12 04:28:11;;;;;;;17.20;4.90;;;12.10;98.60;13.80;97749.00;;;;5004578;28;82484;-61
2022/05/12 04:30:38;;;;;;;19.95;4.43;;;12.40;98.40;13.90;97733.00;;;;5005559;28;81936;-61
2022/05/12 04:35:50;;;;;;;10.75;4.25;;;12.60;98.40;14.40;97736.00;;;;4995081;28;82621;-61
2022/05/12 04:38:16;;;;;;;13.40;4.70;;;12.70;98.30;14.60;97727.00;;;;4992156;28;83687;-62
2022/05/12 04:40:42;;;;;;;8.30;4.10;;;13.10;97.80;14.90;97733.00;;;;4994248;28;83201;-61
2022/05/12 04:43:09;;;;;;;10.45;4.22;;;13.20;97.40;14.90;97728.00;;;;4998766;28;83416;-61
2022/05/12 04:45:36;;;;;;;15.18;4.65;;;13.20;97.40;14.90;97732.00;;;;5000551;28;84579;-61
2022/05/12 04:48:04;;;;;;;11.23;4.20;;;13.20;97.70;14.90;97721.00;;;;5003248;28;82362;-61
2022/05/12 04:50:34;;;;;;;12.10;3.92;;;13.20;97.90;14.70;97701.00;;;;4985127;28;81884;-61
2022/05/12 04:53:01;;;;;;;16.13;4.82;;;13.10;98.10;14.70;97706.00;;;;4999798;28;83434;-61
2022/05/12 04:55:29;;;;;;;10.35;4.65;;;13.10;98.40;14.60;97704.00;;;;5001297;28;82483;-62
2022/05/12 04:57:57;;;;;;;14.48;4.55;;;13.00;98.60;14.60;97701.00;;;;4989418;28;82242;-60
2022/05/12 05:00:37;;;;;;;16.20;4.68;;;13.10;99.00;14.70;97706.00;;;;4985084;28;81870;-60
2022/05/12 05:03:04;;;;;;;9.40;4.40;;;13.10;99.20;14.70;97701.00;;;;4990613;28;83613;-60
2022/05/12 05:05:31;;;;;;;15.52;5.78;;;13.10;99.50;14.60;97697.00;;;;4999832;28;85391;-60
2022/05/12 05:07:57;;;;;;;11.57;4.60;;;13.10;99.90;14.40;97713.00;;;;4985795;28;85599;-60
2022/05/12 05:10:24;;;;;;;10.75;4.30;;;12.90;99.90;14.40;97716.00;;;;5004790;28;81866;-61
2022/05/12 05:12:52;;;;;;;10.88;4.20;;;12.90;99.90;14.40;97714.00;;;;4989993;28;84088;-61
2022/05/12 05:15:19;;;;;;;16.05;4.60;;;12.80;99.90;14.40;97716.00;;;;4986006;28;82184;-63
2022/05/12 05:17:45;;;;;;;15.45;5.53;;;12.90;99.90;14.40;97721.00;;;;5003375;28;82489;-62
2022/05/12 05:20:17;;;;;;;8.43;4.18;;;12.80;99.90;14.30;97705.00;;;;5004051;28;82021;-62
2022/05/12 05:22:44;;;;;;;;;;;12.90;99.90;14.50;97694.00;;;;4997175;28;82215;-62
2022/05/12 05:25:11;;;;;;;14.65;5.47;;;13.00;99.90;14.70;97698.00;;;;4990366;28;83691;-61
2022/05/12 05:27:38;;;;;;;16.60;4.97;;;13.10;99.90;14.80;97701.00;;;;5003062;28;82861;-61
2022/05/12 05:30:10;;;;;;;11.68;4.40;;;13.30;99.90;15.00;97708.00;;;;5004114;28;83392;-62
2022/05/12 05:32:37;;;;;;;16.88;4.40;;;13.40;99.90;15.20;97699.00;;;;5004342;28;81800;-61
2022/05/12 05:35:06;;;;;;;10.98;4.75;;;13.50;99.90;15.20;97692.00;;;;4995144;28;82528;-61
2022/05/12 05:37:32;;;;;;;12.32;4.25;;;13.60;99.90;15.50;97686.00;;;;4993162;28;85162;-61
2022/05/12 05:39:58;;;;;;;8.68;3.83;;;13.90;99.90;16.30;97684.00;;;;4991815;28;82630;-62
2022/05/12 05:42:24;;;;;;;9.35;3.97;;;14.60;99.90;16.70;97683.00;;;;4993182;28;82138;-61
2022/05/12 05:44:51;;;;;;;9.93;4.10;;;14.80;99.00;17.00;97690.00;;;;4997520;28;83908;-62
2022/05/12 05:47:17;;;;;;;15.27;4.68;;;15.30;98.40;17.20;97687.00;;;;5004318;28;81747;-61
2022/05/12 05:49:43;;;;;;;9.88;3.95;;;15.40;98.00;17.30;97687.00;;;;4989386;28;82014;-61
2022/05/12 05:54:55;;;;;;;15.32;4.38;;;15.70;97.30;17.50;97690.00;;;;5003022;28;83511;-61
2022/05/12 05:57:24;;;;;;;10.52;4.05;;;15.60;96.90;17.80;97674.00;;;;4994703;28;83262;-60
2022/05/12 05:59:52;;;;;;;8.82;4.35;;;15.90;97.10;18.30;97677.00;;;;5003918;28;82292;-60
2022/05/12 06:02:19;;;;;;;11.50;4.30;;;16.50;96.20;18.50;97688.00;;;;5002838;28;82386;-61
2022/05/12 06:04:47;;;;;;;9.32;3.83;;;16.50;95.20;18.30;97682.00;;;;4983970;28;83639;-61
2022/05/12 06:07:14;;;;;;;9.27;4.05;;;16.50;95.30;18.10;97669.00;;;;4984776;28;81769;-60
2022/05/12 06:09:41;;;;;;;14.80;4.60;;;16.50;95.40;19.00;97672.00;;;;4984574;28;81793;-60
2022/05/12 06:12:11;;;;;;;10.32;4.07;;;17.00;94.90;19.30;97675.00;;;;4991847;28;84403;-61
2022/05/12 06:14:38;;;;;;;12.13;3.83;;;17.40;94.00;19.40;97676.00;;;;5001032;28;83880;-61
2022/05/12 06:17:05;;;;;;;14.75;3.72;;;17.40;93.80;19.40;97676.00;;;;4991318;28;82402;-61
2022/05/12 06:19:31;;;;;;;11.65;3.80;;;17.50;92.90;19.00;97670.00;;;;5004066;28;82789;-60
2022/05/12 06:21:57;;;;;;;11.73;3.65;;;17.10;93.30;18.90;97680.00;;;;5004405;28;84275;-61
2022/05/12 06:24:24;;;;;;;9.70;3.53;;;17.10;94.30;19.00;97661.00;;;;5000967;28;82646;-59
2022/05/12 06:26:51;;;;;;;9.00;3.97;;;17.10;94.10;18.80;97665.00;;;;4990833;28;82528;-60
2022/05/12 06:29:19;;;;;;;11.55;3.88;;;17.00;94.60;18.60;97664.00;;;;4997379;28;81952;-61
2022/05/12 06:31:46;;;;;;;9.43;4.05;;;16.80;94.80;18.80;97665.00;;;;4991798;28;82436;-60
2022/05/12 06:34:12;;;;;;;17.73;3.95;;;17.00;95.80;19.00;97662.00;;;;4987991;28;83739;-60
2022/05/12 06:36:39;;;;;;;11.80;3.83;;;17.30;96.10;19.20;97661.00;;;;4993970;28;82692;-59
2022/05/12 06:39:06;;;;;;;13.82;4.50;;;17.40;94.60;19.20;97661.00;;;;4992216;28;82056;-60
2022/05/12 06:41:33;;;;;;;16.08;4.88;;;17.40;94.90;19.40;97657.00;;;;4994711;28;84286;-60
2022/05/12 06:44:01;;;;;;;10.02;4.18;;;17.50;94.70;19.50;97646.00;;;;4993826;28;84554;-60
2022/05/12 06:46:27;;;;;;;13.90;4.22;;;17.80;94.50;19.80;97648.00;;;;4989953;28;83199;-60
2022/05/12 06:48:54;;;;;;;11.02;3.88;;;18.00;94.10;20.00;97647.00;;;;4990422;28;82899;-60
2022/05/12 06:51:20;;;;;;;15.10;4.00;;;18.20;93.30;20.20;97644.00;;;;4994750;28;81981;-60
2022/05/12 06:53:47;;;;;;;13.82;3.85;;;18.40;93.50;20.40;97624.00;;;;4992902;28;82514;-60
2022/05/12 06:56:13;;;;;;;15.23;3.53;;;18.80;92.90;20.80;97634.00;;;;4994764;28;83385;-60
2022/05/12 06:58:40;;;;;;;17.27;4.00;;;19.00;91.80;21.00;97639.00;;;;4991333;28;82247;-60
2022/05/12 07:01:06;;;;;;;14.30;3.55;;;19.10;92.40;21.20;97637.00;;;;4994302;28;81825;-60
2022/05/12 07:03:33;;;;;;;12.77;3.60;;;19.40;91.60;21.40;97637.00;;;;4993159;28;82631;-60
2022/05/12 07:05:59;;;;;;;14.23;4.13;;;19.60;91.20;21.40;97652.00;;;;4995259;28;83103;-60
2022/05/12 07:08:29;;;;;;;9.48;2.92;;;19.50;90.40;21.30;97640.00;;;;4996869;28;82783;-60
2022/05/12 07:10:55;;;;;;;13.23;3.13;;;19.50;90.00;21.30;97636.00;;;;4990144;28;82749;-61
2022/05/12 07:13:24;;;;;;;8.75;3.35;;;19.50;89.70;21.40;97650.00;;;;4991661;28;83066;-62
2022/05/12 07:15:51;;;;;;;12.32;2.78;;;19.60;89.30;21.30;97638.00;;;;4991006;28;81975;-61
2022/05/12 07:18:19;;;;;;;9.52;2.70;;;19.60;89.60;21.40;97623.00;;;;4992968;28;81931;-61
2022/05/12 07:28:59;;;;;;;12.52;2.88;;;19.70;89.40;21.50;97626.00;;;;5000415;28;82330;-61
2022/05/12 07:31:25;;;;;;;9.57;2.90;;;19.80;90.50;21.60;97627.00;;;;4993957;28;82060;-61
2022/05/12 07:33:52;;;;;;;7.68;2.50;;;19.80;90.10;21.70;97625.00;;;;4993400;28;84721;-61
2022/05/12 07:36:23;;;;;;;11.73;2.30;;;19.90;89.80;21.60;97630.00;;;;4993419;28;85035;-62
2022/05/12 07:38:50;;;;;;;12.57;2.70;;;19.80;90.40;21.60;97625.00;;;;4993529;28;81874;-62
2022/05/12 07:41:18;;;;;;;5.72;2.70;;;19.90;90.20;21.90;97622.00;;;;4997860;28;83438;-62
2022/05/12 07:43:46;;;;;;;8.35;3.08;;;20.00;90.10;22.00;97611.00;;;;4996779;28;83576;-63
2022/05/12 07:46:17;;;;;;;7.45;3.10;;;20.20;90.70;22.10;97601.00;;;;4994507;28;82429;-63
2022/05/12 07:48:43;;;;;;;6.25;2.70;;;20.40;90.00;22.40;97578.00;;;;4994790;28;82021;-62
2022/05/12 07:51:10;;;;;;;7.30;2.63;;;20.60;89.40;22.40;97575.00;;;;4996868;28;83913;-62
2022/05/12 07:53:37;;;;;;;12.57;2.67;;;20.60;87.90;22.60;97572.00;;;;4995753;28;82566;-62
2022/05/12 07:56:05;;;;;;;9.07;2.70;;;20.90;86.30;22.60;97563.00;;;;4994178;28;82239;-62
2022/05/12 07:58:32;;;;;;;10.23;2.75;;;20.90;86.10;22.50;97581.00;;;;4991959;28;82888;-62
2022/05/12 08:00:59;;;;;;;5.53;3.25;;;21.00;86.00;22.40;97570.00;;;;4992041;28;83465;-62
2022/05/12 08:03:26;;;;;;;10.50;2.83;;;20.90;87.10;22.50;97566.00;;;;4993740;28;84716;-62
2022/05/12 08:05:54;;;;;;;10.25;3.50;;;20.90;87.90;22.40;97577.00;;;;4994165;28;82696;-63
2022/05/12 08:08:20;;;;;;;8.32;2.83;;;20.70;87.50;22.10;97578.00;;;;4992810;28;81914;-62
2022/05/12 08:10:46;;;;;;;8.73;3.10;;;20.50;88.80;22.10;97576.00;;;;4994093;28;81967;-62
2022/05/12 08:13:16;;;;;;;9.40;2.97;;;20.40;88.20;22.10;97577.00;;;;4996366;28;85667;-62
2022/05/12 08:15:47;;;;;;;8.52;2.90;;;20.50;88.50;22.30;97584.00;;;;4993215;28;83436;-63
2022/05/12 08:18:17;;;;;;;8.02;2.80;;;20.40;88.70;22.30;97568.00;;;;4991528;28;82652;-62
2022/05/12 08:20:46;;;;;;;10.32;3.40;;;20.60;90.10;22.40;97567.00;;;;4991743;28;83351;-63
2022/05/12 08:23:13;;;;;;;9.45;3.10;;;20.70;90.20;22.60;97564.00;;;;4992053;28;83434;-64
2022/05/12 08:26:38;;;;;;;6.80;2.88;;;20.90;91.80;22.60;97555.00;;;;5061926;27;81750;-61
2022/05/12 08:29:04;;;;;;;10.27;3.00;;;21.00;90.40;22.80;97547.00;;;;5044023;27;81660;-61
2022/05/12 08:31:30;;;;;;;12.48;3.47;;;21.00;90.40;22.60;97545.00;;;;5040862;28;81506;-62
2022/05/12 08:33:58;;;;;;;15.30;3.63;;;20.90;91.70;22.50;97536.00;;;;5040968;28;82331;-62
2022/05/12 08:36:27;;;;;;;9.18;3.22;;;20.90;90.80;22.70;97533.00;;;;5040167;28;81898;-62
2022/05/12 08:38:54;;;;;;;13.73;2.60;;;21.10;91.30;23.20;97529.00;;;;5039930;28;81579;-62
2022/05/12 08:41:32;;;;;;;8.02;3.05;;;21.40;91.10;23.50;97545.00;;;;5039767;28;81909;-61
2022/05/12 08:44:06;;;;;;;11.70;3.47;;;21.60;92.50;23.00;97530.00;;;;5016049;28;83731;-61
2022/05/12 08:46:37;;;;;;;11.00;3.05;;;21.30;92.30;23.00;97532.00;;;;5039449;28;82782;-61
2022/05/12 08:49:30;;;;;;;10.85;3.03;;;21.40;92.60;23.00;97522.00;;;;5040028;28;81883;-61
2022/05/12 08:52:15;;;;;;;10.80;2.85;;;21.30;92.60;22.70;97531.00;;;;5040636;27;81792;-61
2022/05/12 08:55:02;;;;;;;6.30;2.90;;;21.00;93.30;22.40;97519.00;;;;5038964;28;82315;-61
2022/05/12 08:57:56;;;;;;;7.35;2.55;;;20.70;93.70;22.60;97499.00;;;;5039510;28;82860;-60
2022/05/12 09:00:24;;;;;;;7.80;2.95;;;20.90;94.20;23.00;97510.00;;;;5032607;28;81598;-61
2022/05/12 09:03:28;;;;;;;9.52;3.08;;;21.20;94.00;23.30;97516.00;;;;5040432;27;82105;-62
2022/05/12 09:06:21;;;;;;;5.40;2.80;;;21.50;94.10;23.40;97487.00;;;;5032401;28;81764;-62
2022/05/12 09:09:11;;;;;;;8.35;2.75;;;21.60;93.20;23.50;97493.00;;;;5036348;28;81821;-61
2022/05/12 09:12:02;;;;;;;6.03;2.17;;;21.70;93.50;23.20;97489.00;;;;5038371;28;82810;-61
2022/05/12 09:14:36;;;;;;;6.53;2.50;;;21.60;91.80;22.50;97504.00;;;;5035622;28;81543;-61
2022/05/12 09:17:04;;;;;;;6.40;2.30;;;21.00;92.00;22.60;97498.00;;;;5039883;27;82528;-62
2022/05/12 11:40:24;;;;;;;4.97;2.20;;;21.40;84.70;23.20;97359.00;;;;4928216;28;81879;-64
2022/05/12 13:33:15;;;;;;;;;;;;;;;;;;;;;
2022/05/12 13:37:34;;;;;;;6.00;2.85;;;21.70;96.60;23.50;97191.00;;;;4700438;30;82053;-63
2022/05/12 13:47:01;;;;;;;;;;;;;;;;;;;;;
2022/05/12 15:22:16;;;;;;;10.35;4.07;;;19.50;99.90;21.00;97051.00;;;;4660909;30;81905;-65
2022/05/12 15:25:53;;;;;;;9.52;4.03;;;19.30;99.90;21.00;97050.00;;;;4798143;29;82651;-65
2022/05/12 15:34:05;;;;;;;12.30;4.07;;;19.10;99.90;20.60;97048.00;;;;4733461;29;81839;-65
2022/05/12 15:37:31;;;;;;;;;;;;;;;;;;;;;
2022/05/12 15:40:43;;;;;;;9.30;4.15;;;18.80;99.90;20.20;97045.00;;;;4813893;29;82333;-65
2022/05/12 15:44:09;;;;;;;7.32;3.95;;;18.70;99.90;20.10;97032.00;;;;4877085;28;82068;-65
2022/05/12 15:47:22;;;;;;;;;;;;;;;;;;;;;
2022/05/12 15:55:16;;;;;;;6.78;4.20;;;18.00;99.90;19.40;97039.00;;;;4940276;28;82015;-64
2022/05/12 15:58:58;;;;;;;11.52;3.55;;;17.80;99.90;19.30;97042.00;;;;4959362;28;82425;-65
2022/05/12 16:01:24;;;;;;;9.05;4.40;;;17.60;99.90;18.80;97038.00;;;;4976978;28;82503;-65
2022/05/12 16:04:43;;;;;;;9.82;4.55;;;17.30;99.90;18.50;97026.00;;;;4933171;28;81779;-65
2022/05/12 16:07:39;;;;;;;9.63;5.13;;;16.90;99.90;18.00;97013.00;;;;4980023;28;82108;-65
2022/05/12 16:11:06;;;;;;;9.65;5.18;;;16.50;99.90;17.80;97016.00;;;;4937240;28;81714;-65
2022/05/12 16:14:03;;;;;;;11.32;5.93;;;16.40;99.90;17.70;97005.00;;;;4888887;28;81886;-66
2022/05/12 16:17:21;;;;;;;10.50;6.82;;;16.20;99.90;17.50;97008.00;;;;4872638;28;81745;-63
2022/05/12 16:19:56;;;;;;;10.50;6.70;;;16.00;99.90;17.40;97002.00;;;;4964899;28;82264;-66
2022/05/12 16:22:56;;;;;;;11.70;7.03;;;15.80;99.90;17.20;96988.00;;;;4985862;28;82140;-66
2022/05/12 16:26:15;;;;;;;12.85;6.93;;;15.60;99.90;17.00;96965.00;;;;4963999;28;81842;-65
2022/05/12 16:28:57;;;;;;;16.02;7.05;;;15.40;99.90;16.80;96956.00;;;;4954373;28;82765;-65
2022/05/12 16:31:35;;;;;;;9.02;7.72;;;15.20;99.90;16.80;96939.00;;;;4986046;28;82097;-65
2022/05/12 16:34:47;;;;;;;12.10;8.82;;;15.10;99.90;16.70;96938.00;;;;4995524;28;82905;-65
2022/05/12 16:37:42;;;;;;;;;;;15.00;99.90;16.70;96934.00;;;;4985470;28;81741;-65
2022/05/12 16:43:58;;;;;;;11.88;10.38;;;14.80;99.90;16.50;96931.00;;;;4980722;28;82017;-64
2022/05/12 16:47:39;;;;;;;14.80;11.32;;;14.70;99.90;16.40;96942.00;;;;5000748;28;83885;-66
2022/05/12 16:49:56;;;;;;;13.83;12.40;;;14.70;99.90;16.30;96942.00;;;;4962355;28;82815;-66
2022/05/12 16:53:00;;;;;;;17.45;14.77;;;14.60;99.90;16.30;96959.00;;;;4994056;28;84703;-66
2022/05/12 16:58:31;;;;;;;18.42;16.77;;;14.50;99.90;16.20;96940.00;;;;4994154;28;82594;-65
2022/05/12 17:09:27;;;;;;;21.27;16.77;;;14.40;99.90;16.00;96910.00;;;;4966384;28;82674;-65
2022/05/12 17:20:08;;;;;;;30.80;28.00;;;14.10;99.90;15.90;96871.00;;;;4950336;28;82968;-65
2022/05/12 17:22:53;;;;;;;28.42;26.13;;;14.10;99.90;15.90;96849.00;;;;4962300;28;82853;-65
2022/05/12 17:26:11;;;;;;;33.67;30.80;;;14.10;99.90;16.00;96854.00;;;;4946988;28;82727;-66
2022/05/12 17:29:48;;;;;;;28.77;26.02;;;14.10;99.90;15.90;96853.00;;;;4884663;28;82987;-65
2022/05/12 17:33:22;;;;;;;32.55;30.15;;;14.00;99.90;15.90;96858.00;;;;4925510;28;83849;-65
2022/05/12 17:40:19;;;;;;;29.88;27.83;;;14.00;99.90;15.90;96829.00;;;;4963834;28;82736;-65
2022/05/12 17:43:29;;;;;;;34.33;31.90;;;13.90;99.90;15.80;96820.00;;;;4979380;28;83476;-66
2022/05/12 17:54:42;;;;;;;31.23;28.55;;;13.80;99.90;15.70;96783.00;;;;4946846;28;82699;-65
2022/05/12 17:57:14;;;;;;;27.98;25.77;;;13.80;99.90;15.70;96793.00;;;;4922336;28;82879;-66
2022/05/12 17:59:55;;;;;;;33.17;30.67;;;13.80;99.90;15.90;96783.00;;;;4933745;28;83319;-65
2022/05/12 18:02:41;;;;;;;29.33;26.88;;;13.80;99.90;15.90;96762.00;;;;4947606;28;84464;-64
2022/05/12 18:06:42;;;;;;;27.88;25.77;;;13.70;99.90;15.80;96751.00;;;;4946173;28;82729;-65
2022/05/12 18:09:10;;;;;;;25.25;23.35;;;13.70;99.90;15.70;96746.00;;;;4872630;28;83084;-65
2022/05/12 18:11:59;;;;;;;27.50;24.98;;;13.70;99.90;15.60;96736.00;;;;4880914;28;83456;-65
2022/05/12 18:15:39;;;;;;;25.50;23.60;;;13.70;99.90;15.60;96751.00;;;;4999641;28;82844;-66
2022/05/12 18:18:28;;;;;;;28.33;26.15;;;13.60;99.90;15.60;96727.00;;;;4997666;28;82550;-64
2022/05/12 18:22:03;;;;;;;24.58;22.58;;;13.60;99.90;15.70;96731.00;;;;4963385;28;83000;-65
2022/05/12 18:30:29;;;;;;;;;;;;;;;;;;;;;